sensor_id;sensor_type;location;lat;lon;timestamp;pressure;altitude;pressure_sealevel;temperature;humidity
31299;BME280;17927;52.350;13.402;2022-12-10T00:01:42;100451.72;;;4.88;57.95
31299;BME280;17927;52.350;13.402;2022-12-10T00:04:08;100458.91;;;4.87;58.13
31299;BME280;17927;52.350;13.402;2022-12-10T00:06:35;100456.22;;;4.87;58.19
31299;BME280;17927;52.350;13.402;2022-12-10T00:09:03;100458.03;;;4.87;57.87
31299;BME280;17927;52.350;13.402;2022-12-10T00:11:28;100453.66;;;4.86;58.13
31299;BME280;17927;52.350;13.402;2022-12-10T00:13:54;100452.06;;;4.83;58.29
31299;BME280;17927;52.350;13.402;2022-12-10T00:16:22;100453.78;;;4.84;58.15
31299;BME280;17927;52.350;13.402;2022-12-10T00:18:49;100456.44;;;4.84;58.13
31299;BME280;17927;52.350;13.402;2022-12-10T00:21:19;100455.56;;;4.84;57.99
31299;BME280;17927;52.350;13.402;2022-12-10T00:23:45;100461.06;;;4.82;57.94
31299;BME280;17927;52.350;13.402;2022-12-10T00:26:24;100462.91;;;4.82;58.16
31299;BME280;17927;52.350;13.402;2022-12-10T00:28:51;100461.19;;;4.81;58.00
31299;BME280;17927;52.350;13.402;2022-12-10T00:31:20;100454.13;;;4.80;57.92
31299;BME280;17927;52.350;13.402;2022-12-10T00:33:46;100458.72;;;4.78;58.16
31299;BME280;17927;52.350;13.402;2022-12-10T00:36:23;100461.50;;;4.76;57.77
31299;BME280;17927;52.350;13.402;2022-12-10T00:38:49;100469.66;;;4.75;57.83
31299;BME280;17927;52.350;13.402;2022-12-10T00:41:15;100466.22;;;4.72;58.00
31299;BME280;17927;52.350;13.402;2022-12-10T00:43:41;100473.50;;;4.70;57.72
31299;BME280;17927;52.350;13.402;2022-12-10T00:46:07;100470.94;;;4.69;57.96
31299;BME280;17927;52.350;13.402;2022-12-10T00:48:33;100470.09;;;4.68;58.06
31299;BME280;17927;52.350;13.402;2022-12-10T00:51:13;100474.59;;;4.68;58.00
31299;BME280;17927;52.350;13.402;2022-12-10T00:53:40;100472.88;;;4.67;57.75
31299;BME280;17927;52.350;13.402;2022-12-10T00:56:07;100470.34;;;4.65;57.98
31299;BME280;17927;52.350;13.402;2022-12-10T00:58:33;100466.78;;;4.65;57.83
31299;BME280;17927;52.350;13.402;2022-12-10T01:03:48;100474.06;;;4.63;57.85
31299;BME280;17927;52.350;13.402;2022-12-10T01:06:26;100471.28;;;4.64;57.80
31299;BME280;17927;52.350;13.402;2022-12-10T01:08:53;100471.38;;;4.63;57.87
31299;BME280;17927;52.350;13.402;2022-12-10T01:11:21;100476.66;;;4.64;57.91
31299;BME280;17927;52.350;13.402;2022-12-10T01:13:48;100474.72;;;4.66;58.22
31299;BME280;17927;52.350;13.402;2022-12-10T01:16:16;100477.41;;;4.66;57.67
31299;BME280;17927;52.350;13.402;2022-12-10T01:18:42;100471.16;;;4.66;57.82
31299;BME280;17927;52.350;13.402;2022-12-10T01:21:10;100467.75;;;4.64;57.72
31299;BME280;17927;52.350;13.402;2022-12-10T01:23:37;100466.03;;;4.63;57.72
31299;BME280;17927;52.350;13.402;2022-12-10T01:26:05;100470.56;;;4.62;57.68
31299;BME280;17927;52.350;13.402;2022-12-10T01:28:33;100468.84;;;4.61;57.69
31299;BME280;17927;52.350;13.402;2022-12-10T01:31:03;100465.28;;;4.61;57.48
31299;BME280;17927;52.350;13.402;2022-12-10T01:33:29;100456.56;;;4.59;57.49
31299;BME280;17927;52.350;13.402;2022-12-10T01:35:55;100471.84;;;4.56;57.59
31299;BME280;17927;52.350;13.402;2022-12-10T01:38:20;100455.06;;;4.54;57.35
31299;BME280;17927;52.350;13.402;2022-12-10T01:40:45;100458.69;;;4.53;57.58
31299;BME280;17927;52.350;13.402;2022-12-10T01:43:13;100463.16;;;4.53;57.63
31299;BME280;17927;52.350;13.402;2022-12-10T01:45:38;100455.28;;;4.51;57.62
31299;BME280;17927;52.350;13.402;2022-12-10T01:48:04;100471.44;;;4.50;57.62
31299;BME280;17927;52.350;13.402;2022-12-10T01:50:29;100470.56;;;4.49;57.47
31299;BME280;17927;52.350;13.402;2022-12-10T01:52:54;100472.50;;;4.47;57.36
31299;BME280;17927;52.350;13.402;2022-12-10T01:58:03;100468.22;;;4.45;57.49
31299;BME280;17927;52.350;13.402;2022-12-10T02:00:30;100468.13;;;4.46;57.69
31299;BME280;17927;52.350;13.402;2022-12-10T02:03:03;100471.66;;;4.47;57.65
31299;BME280;17927;52.350;13.402;2022-12-10T02:05:41;100467.16;;;4.47;57.62
31299;BME280;17927;52.350;13.402;2022-12-10T02:08:19;100466.19;;;4.48;57.52
31299;BME280;17927;52.350;13.402;2022-12-10T02:11:04;100468.03;;;4.48;57.44
31299;BME280;17927;52.350;13.402;2022-12-10T02:13:38;100465.44;;;4.46;57.46
31299;BME280;17927;52.350;13.402;2022-12-10T02:16:09;100454.75;;;4.46;57.47
31299;BME280;17927;52.350;13.402;2022-12-10T02:18:41;100476.03;;;4.48;57.77
31299;BME280;17927;52.350;13.402;2022-12-10T02:21:25;100472.50;;;4.47;57.59
31299;BME280;17927;52.350;13.402;2022-12-10T02:23:55;100469.81;;;4.47;57.71
31299;BME280;17927;52.350;13.402;2022-12-10T02:29:23;100467.06;;;4.49;57.72
31299;BME280;17927;52.350;13.402;2022-12-10T02:31:56;100467.06;;;4.49;57.74
31299;BME280;17927;52.350;13.402;2022-12-10T02:34:26;100471.31;;;4.51;57.72
31299;BME280;17927;52.350;13.402;2022-12-10T02:36:57;100473.88;;;4.53;57.54
31299;BME280;17927;52.350;13.402;2022-12-10T02:39:29;100475.50;;;4.55;57.65
31299;BME280;17927;52.350;13.402;2022-12-10T02:41:58;100470.97;;;4.56;57.75
31299;BME280;17927;52.350;13.402;2022-12-10T02:44:25;100470.97;;;4.56;57.54
31299;BME280;17927;52.350;13.402;2022-12-10T02:46:54;100473.66;;;4.56;57.69
31299;BME280;17927;52.350;13.402;2022-12-10T02:49:21;100485.09;;;4.58;57.85
31299;BME280;17927;52.350;13.402;2022-12-10T02:51:46;100476.13;;;4.59;57.67
31299;BME280;17927;52.350;13.402;2022-12-10T02:54:41;100479.53;;;4.61;57.43
31299;BME280;17927;52.350;13.402;2022-12-10T03:08:00;100491.00;;;4.50;57.62
31299;BME280;17927;52.350;13.402;2022-12-10T03:10:35;100485.53;;;4.52;57.88
31299;BME280;17927;52.350;13.402;2022-12-10T03:13:06;100481.81;;;4.54;57.72
31299;BME280;17927;52.350;13.402;2022-12-10T03:15:34;100477.28;;;4.55;57.42
31299;BME280;17927;52.350;13.402;2022-12-10T03:18:03;100480.72;;;4.57;57.26
31299;BME280;17927;52.350;13.402;2022-12-10T03:20:31;100483.31;;;4.59;57.56
31299;BME280;17927;52.350;13.402;2022-12-10T03:22:57;100476.97;;;4.60;57.52
31299;BME280;17927;52.350;13.402;2022-12-10T03:25:25;100481.34;;;4.61;57.36
31299;BME280;17927;52.350;13.402;2022-12-10T03:27:54;100482.22;;;4.61;57.75
31299;BME280;17927;52.350;13.402;2022-12-10T03:30:20;100488.31;;;4.63;57.31
31299;BME280;17927;52.350;13.402;2022-12-10T03:32:46;100487.44;;;4.63;57.49
31299;BME280;17927;52.350;13.402;2022-12-10T03:35:13;100494.63;;;4.62;57.54
31299;BME280;17927;52.350;13.402;2022-12-10T03:37:39;100492.03;;;4.61;57.76
31299;BME280;17927;52.350;13.402;2022-12-10T03:40:06;100487.66;;;4.60;57.51
31299;BME280;17927;52.350;13.402;2022-12-10T03:42:35;100492.03;;;4.61;57.66
31299;BME280;17927;52.350;13.402;2022-12-10T03:45:00;100489.38;;;4.61;57.63
31299;BME280;17927;52.350;13.402;2022-12-10T03:47:26;100493.88;;;4.60;57.60
31299;BME280;17927;52.350;13.402;2022-12-10T03:49:51;100500.19;;;4.59;57.56
31299;BME280;17927;52.350;13.402;2022-12-10T03:52:16;100490.47;;;4.58;57.71
31299;BME280;17927;52.350;13.402;2022-12-10T03:54:41;100506.50;;;4.58;57.68
31299;BME280;17927;52.350;13.402;2022-12-10T03:57:07;100495.81;;;4.58;57.43
31299;BME280;17927;52.350;13.402;2022-12-10T03:59:32;100510.06;;;4.59;57.36
31299;BME280;17927;52.350;13.402;2022-12-10T04:01:57;100508.22;;;4.59;57.85
31299;BME280;17927;52.350;13.402;2022-12-10T04:04:22;100501.16;;;4.58;57.64
31299;BME280;17927;52.350;13.402;2022-12-10T04:06:48;100505.66;;;4.57;57.41
31299;BME280;17927;52.350;13.402;2022-12-10T04:09:15;100502.03;;;4.59;57.49
31299;BME280;17927;52.350;13.402;2022-12-10T04:11:40;100507.38;;;4.59;57.35
31299;BME280;17927;52.350;13.402;2022-12-10T04:14:08;100498.47;;;4.58;57.38
31299;BME280;17927;52.350;13.402;2022-12-10T04:16:52;100502.03;;;4.59;57.46
31299;BME280;17927;52.350;13.402;2022-12-10T04:19:18;100504.72;;;4.59;57.23
31299;BME280;17927;52.350;13.402;2022-12-10T04:21:44;100502.03;;;4.59;57.38
31299;BME280;17927;52.350;13.402;2022-12-10T04:24:31;100502.34;;;4.54;57.38
31299;BME280;17927;52.350;13.402;2022-12-10T04:27:27;100498.06;;;4.51;57.45
31299;BME280;17927;52.350;13.402;2022-12-10T04:29:53;100499.16;;;4.49;57.49
31299;BME280;17927;52.350;13.402;2022-12-10T04:32:19;100502.59;;;4.51;57.37
31299;BME280;17927;52.350;13.402;2022-12-10T04:34:44;100500.88;;;4.50;57.60
31299;BME280;17927;52.350;13.402;2022-12-10T04:37:10;100501.72;;;4.50;57.54
31299;BME280;17927;52.350;13.402;2022-12-10T04:39:36;100500.88;;;4.50;57.53
31299;BME280;17927;52.350;13.402;2022-12-10T04:42:02;100501.72;;;4.50;57.31
31299;BME280;17927;52.350;13.402;2022-12-10T04:44:27;100500.75;;;4.51;57.48
31299;BME280;17927;52.350;13.402;2022-12-10T04:46:52;100500.75;;;4.51;57.13
31299;BME280;17927;52.350;13.402;2022-12-10T04:49:18;100505.13;;;4.52;57.32
31299;BME280;17927;52.350;13.402;2022-12-10T04:51:43;100504.25;;;4.52;57.56
31299;BME280;17927;52.350;13.402;2022-12-10T04:54:09;100502.47;;;4.52;57.23
31299;BME280;17927;52.350;13.402;2022-12-10T04:56:34;100507.06;;;4.50;57.36
31299;BME280;17927;52.350;13.402;2022-12-10T04:59:00;100513.28;;;4.51;57.21
31299;BME280;17927;52.350;13.402;2022-12-10T05:01:26;100513.28;;;4.51;57.25
31299;BME280;17927;52.350;13.402;2022-12-10T05:03:52;100503.63;;;4.48;57.29
31299;BME280;17927;52.350;13.402;2022-12-10T05:06:19;100500.97;;;4.48;57.37
31299;BME280;17927;52.350;13.402;2022-12-10T05:08:44;100508.03;;;4.49;57.47
31299;BME280;17927;52.350;13.402;2022-12-10T05:11:16;100509.84;;;4.49;57.20
31299;BME280;17927;52.350;13.402;2022-12-10T05:13:41;100517.00;;;4.48;57.21
31299;BME280;17927;52.350;13.402;2022-12-10T05:16:09;100517.13;;;4.47;57.04
31299;BME280;17927;52.350;13.402;2022-12-10T05:18:35;100511.66;;;4.48;57.17
31299;BME280;17927;52.350;13.402;2022-12-10T05:21:03;100515.28;;;4.47;57.12
31299;BME280;17927;52.350;13.402;2022-12-10T05:23:29;100522.56;;;4.45;57.15
31299;BME280;17927;52.350;13.402;2022-12-10T05:26:21;100517.22;;;4.45;56.98
31299;BME280;17927;52.350;13.402;2022-12-10T05:28:56;100513.72;;;4.45;57.39
31299;BME280;17927;52.350;13.402;2022-12-10T05:31:26;100512.97;;;4.42;57.20
31299;BME280;17927;52.350;13.402;2022-12-10T05:33:53;100516.59;;;4.41;57.41
31299;BME280;17927;52.350;13.402;2022-12-10T05:36:21;100526.22;;;4.44;57.20
31299;BME280;17927;52.350;13.402;2022-12-10T05:38:47;100519.19;;;4.43;57.26
31299;BME280;17927;52.350;13.402;2022-12-10T05:41:18;100524.53;;;4.43;57.38
31299;BME280;17927;52.350;13.402;2022-12-10T05:43:45;100519.28;;;4.41;57.37
31299;BME280;17927;52.350;13.402;2022-12-10T05:46:13;100526.22;;;4.44;57.21
31299;BME280;17927;52.350;13.402;2022-12-10T05:48:39;100520.97;;;4.42;57.27
31299;BME280;17927;52.350;13.402;2022-12-10T05:51:06;100513.81;;;4.43;57.25
31299;BME280;17927;52.350;13.402;2022-12-10T05:53:31;100518.31;;;4.42;57.29
31299;BME280;17927;52.350;13.402;2022-12-10T05:56:02;100522.69;;;4.44;57.37
31299;BME280;17927;52.350;13.402;2022-12-10T05:58:28;100518.44;;;4.41;57.26
31299;BME280;17927;52.350;13.402;2022-12-10T06:00:57;100522.06;;;4.40;57.26
31299;BME280;17927;52.350;13.402;2022-12-10T06:03:24;100526.44;;;4.41;57.23
31299;BME280;17927;52.350;13.402;2022-12-10T06:05:50;100520.13;;;4.42;57.22
31299;BME280;17927;52.350;13.402;2022-12-10T06:08:15;100516.59;;;4.41;57.50
31299;BME280;17927;52.350;13.402;2022-12-10T06:10:40;100519.41;;;4.40;57.24
31299;BME280;17927;52.350;13.402;2022-12-10T06:13:05;100515.75;;;4.41;57.19
31299;BME280;17927;52.350;13.402;2022-12-10T06:15:31;100516.81;;;4.38;57.40
31299;BME280;17927;52.350;13.402;2022-12-10T06:17:58;100521.19;;;4.39;57.27
31299;BME280;17927;52.350;13.402;2022-12-10T06:20:24;100526.53;;;4.39;57.12
31299;BME280;17927;52.350;13.402;2022-12-10T06:22:50;100522.28;;;4.37;57.21
31299;BME280;17927;52.350;13.402;2022-12-10T06:25:15;100524.06;;;4.36;57.29
31299;BME280;17927;52.350;13.402;2022-12-10T06:27:40;100526.75;;;4.36;57.17
31299;BME280;17927;52.350;13.402;2022-12-10T06:30:06;100530.50;;;4.34;57.25
31299;BME280;17927;52.350;13.402;2022-12-10T06:32:31;100529.53;;;4.35;57.34
31299;BME280;17927;52.350;13.402;2022-12-10T06:34:57;100533.09;;;4.35;57.33
31299;BME280;17927;52.350;13.402;2022-12-10T06:37:22;100526.75;;;4.36;57.08
31299;BME280;17927;52.350;13.402;2022-12-10T06:39:50;100533.94;;;4.36;57.14
31299;BME280;17927;52.350;13.402;2022-12-10T06:42:16;100527.75;;;4.35;57.20
31299;BME280;17927;52.350;13.402;2022-12-10T06:44:41;100533.09;;;4.35;57.42
31299;BME280;17927;52.350;13.402;2022-12-10T06:47:06;100541.13;;;4.35;57.43
31299;BME280;17927;52.350;13.402;2022-12-10T06:49:32;100539.41;;;4.34;57.42
31299;BME280;17927;52.350;13.402;2022-12-10T06:51:57;100544.75;;;4.34;57.53
31299;BME280;17927;52.350;13.402;2022-12-10T06:54:22;100543.88;;;4.34;57.28
31299;BME280;17927;52.350;13.402;2022-12-10T06:56:47;100548.38;;;4.33;57.53
31299;BME280;17927;52.350;13.402;2022-12-10T06:59:13;100546.56;;;4.34;57.36
31299;BME280;17927;52.350;13.402;2022-12-10T07:01:38;100546.47;;;4.35;57.35
31299;BME280;17927;52.350;13.402;2022-12-10T07:04:04;100545.59;;;4.35;57.23
31299;BME280;17927;52.350;13.402;2022-12-10T07:06:30;100555.34;;;4.36;57.24
31299;BME280;17927;52.350;13.402;2022-12-10T07:08:56;100549.97;;;4.36;57.54
31299;BME280;17927;52.350;13.402;2022-12-10T07:11:23;100558.00;;;4.36;57.45
31299;BME280;17927;52.350;13.402;2022-12-10T07:13:48;100549.16;;;4.35;57.57
31299;BME280;17927;52.350;13.402;2022-12-10T07:16:16;100559.72;;;4.37;57.25
31299;BME280;17927;52.350;13.402;2022-12-10T07:18:42;100560.56;;;4.37;57.22
31299;BME280;17927;52.350;13.402;2022-12-10T07:21:22;100556.09;;;4.38;57.38
31299;BME280;17927;52.350;13.402;2022-12-10T07:23:49;100558.84;;;4.36;57.51
31299;BME280;17927;52.350;13.402;2022-12-10T07:26:15;100560.47;;;4.39;57.53
31299;BME280;17927;52.350;13.402;2022-12-10T07:28:40;100560.34;;;4.40;57.43
31299;BME280;17927;52.350;13.402;2022-12-10T07:31:08;100572.69;;;4.43;57.41
31299;BME280;17927;52.350;13.402;2022-12-10T07:33:34;100567.09;;;4.46;57.36
31299;BME280;17927;52.350;13.402;2022-12-10T07:36:03;100561.66;;;4.48;57.35
31299;BME280;17927;52.350;13.402;2022-12-10T07:38:29;100563.34;;;4.49;57.43
31299;BME280;17927;52.350;13.402;2022-12-10T07:40:54;100564.19;;;4.49;57.30
31299;BME280;17927;52.350;13.402;2022-12-10T07:43:19;100572.97;;;4.51;57.29
31299;BME280;17927;52.350;13.402;2022-12-10T07:45:44;100574.69;;;4.52;57.40
31299;BME280;17927;52.350;13.402;2022-12-10T07:48:10;100574.56;;;4.54;57.37
31299;BME280;17927;52.350;13.402;2022-12-10T07:50:35;100579.84;;;4.55;57.45
31299;BME280;17927;52.350;13.402;2022-12-10T07:53:01;100585.06;;;4.57;57.28
31299;BME280;17927;52.350;13.402;2022-12-10T07:55:26;100584.09;;;4.58;57.32
31299;BME280;17927;52.350;13.402;2022-12-10T07:57:51;100588.38;;;4.61;57.50
31299;BME280;17927;52.350;13.402;2022-12-10T08:00:17;100589.13;;;4.63;57.50
31299;BME280;17927;52.350;13.402;2022-12-10T08:02:42;100591.72;;;4.64;57.53
31299;BME280;17927;52.350;13.402;2022-12-10T08:05:08;100589.66;;;4.68;57.25
31299;BME280;17927;52.350;13.402;2022-12-10T08:07:33;100586.88;;;4.69;57.21
31299;BME280;17927;52.350;13.402;2022-12-10T08:09:58;100593.94;;;4.70;57.15
31299;BME280;17927;52.350;13.402;2022-12-10T08:12:24;100595.66;;;4.71;57.25
31299;BME280;17927;52.350;13.402;2022-12-10T08:14:49;100603.59;;;4.73;57.33
31299;BME280;17927;52.350;13.402;2022-12-10T08:17:14;100607.97;;;4.74;57.15
31299;BME280;17927;52.350;13.402;2022-12-10T08:19:39;100596.28;;;4.75;57.08
31299;BME280;17927;52.350;13.402;2022-12-10T08:22:05;100604.31;;;4.75;57.35
31299;BME280;17927;52.350;13.402;2022-12-10T08:24:30;100601.53;;;4.77;57.23
31299;BME280;17927;52.350;13.402;2022-12-10T08:26:55;100608.47;;;4.79;57.06
31299;BME280;17927;52.350;13.402;2022-12-10T08:29:21;100613.75;;;4.81;57.40
31299;BME280;17927;52.350;13.402;2022-12-10T08:31:46;100625.16;;;4.83;57.19
31299;BME280;17927;52.350;13.402;2022-12-10T08:34:16;100614.47;;;4.83;57.28
31299;BME280;17927;52.350;13.402;2022-12-10T08:36:42;100616.94;;;4.86;57.22
31299;BME280;17927;52.350;13.402;2022-12-10T08:39:08;100603.44;;;4.87;56.77
31299;BME280;17927;52.350;13.402;2022-12-10T08:41:35;100613.06;;;4.90;57.00
31299;BME280;17927;52.350;13.402;2022-12-10T08:44:01;100614.78;;;4.91;57.05
31299;BME280;17927;52.350;13.402;2022-12-10T08:46:26;100617.34;;;4.93;57.35
31299;BME280;17927;52.350;13.402;2022-12-10T08:48:51;100622.59;;;4.94;57.21
31299;BME280;17927;52.350;13.402;2022-12-10T08:51:18;100620.78;;;4.95;57.01
31299;BME280;17927;52.350;13.402;2022-12-10T08:53:44;100613.50;;;4.97;57.04
31299;BME280;17927;52.350;13.402;2022-12-10T08:56:09;100625.78;;;4.99;57.14
31299;BME280;17927;52.350;13.402;2022-12-10T08:58:36;100629.22;;;5.01;57.01
31299;BME280;17927;52.350;13.402;2022-12-10T09:01:06;100619.25;;;5.03;56.83
31299;BME280;17927;52.350;13.402;2022-12-10T09:03:31;100619.03;;;5.07;57.10
31299;BME280;17927;52.350;13.402;2022-12-10T09:06:01;100629.41;;;5.11;56.94
31299;BME280;17927;52.350;13.402;2022-12-10T09:08:27;100621.03;;;5.16;56.79
31299;BME280;17927;52.350;13.402;2022-12-10T09:10:52;100617.06;;;5.22;56.92
31299;BME280;17927;52.350;13.402;2022-12-10T09:13:17;100620.19;;;5.28;56.86
31299;BME280;17927;52.350;13.402;2022-12-10T09:15:52;100626.16;;;5.32;56.67
31299;BME280;17927;52.350;13.402;2022-12-10T09:18:18;100628.72;;;5.33;56.93
31299;BME280;17927;52.350;13.402;2022-12-10T09:20:43;100628.50;;;5.37;56.49
31299;BME280;17927;52.350;13.402;2022-12-10T09:23:09;100628.38;;;5.38;56.43
31299;BME280;17927;52.350;13.402;2022-12-10T09:25:34;100633.72;;;5.38;56.36
31299;BME280;17927;52.350;13.402;2022-12-10T09:27:59;100633.50;;;5.41;56.54
31299;BME280;17927;52.350;13.402;2022-12-10T09:30:24;100633.41;;;5.43;56.45
31299;BME280;17927;52.350;13.402;2022-12-10T09:32:50;100637.69;;;5.45;56.49
31299;BME280;17927;52.350;13.402;2022-12-10T09:35:15;100634.88;;;5.47;56.51
31299;BME280;17927;52.350;13.402;2022-12-10T09:37:40;100629.53;;;5.47;56.51
31299;BME280;17927;52.350;13.402;2022-12-10T09:40:06;100636.50;;;5.49;56.20
31299;BME280;17927;52.350;13.402;2022-12-10T09:45:36;100622.88;;;5.53;56.10
31299;BME280;17927;52.350;13.402;2022-12-10T09:48:19;100622.88;;;5.53;56.21
31299;BME280;17927;52.350;13.402;2022-12-10T09:51:05;100623.59;;;5.55;56.39
31299;BME280;17927;52.350;13.402;2022-12-10T09:53:36;100627.03;;;5.57;56.26
31299;BME280;17927;52.350;13.402;2022-12-10T09:56:03;100631.31;;;5.59;56.25
31299;BME280;17927;52.350;13.402;2022-12-10T09:58:28;100625.84;;;5.61;56.43
31299;BME280;17927;52.350;13.402;2022-12-10T10:00:58;100627.53;;;5.62;56.30
31299;BME280;17927;52.350;13.402;2022-12-10T10:03:24;100621.22;;;5.63;56.12
31299;BME280;17927;52.350;13.402;2022-12-10T10:05:51;100625.47;;;5.66;56.34
31299;BME280;17927;52.350;13.402;2022-12-10T10:08:31;100617.34;;;5.67;56.20
31299;BME280;17927;52.350;13.402;2022-12-10T10:10:58;100620.88;;;5.68;56.14
31299;BME280;17927;52.350;13.402;2022-12-10T10:13:39;100618.94;;;5.70;56.13
31299;BME280;17927;52.350;13.402;2022-12-10T10:16:23;100620.66;;;5.71;56.29
31299;BME280;17927;52.350;13.402;2022-12-10T10:18:54;100627.72;;;5.72;56.17
31299;BME280;17927;52.350;13.402;2022-12-10T10:21:24;100624.81;;;5.75;56.10
31299;BME280;17927;52.350;13.402;2022-12-10T10:23:50;100619.44;;;5.75;56.04
31299;BME280;17927;52.350;13.402;2022-12-10T10:26:16;100621.88;;;5.78;56.22
31299;BME280;17927;52.350;13.402;2022-12-10T10:28:42;100612.88;;;5.79;56.22
31299;BME280;17927;52.350;13.402;2022-12-10T10:31:18;100617.03;;;5.83;56.20
31299;BME280;17927;52.350;13.402;2022-12-10T10:33:56;100620.47;;;5.85;56.19
31299;BME280;17927;52.350;13.402;2022-12-10T10:36:30;100622.91;;;5.88;56.37
31299;BME280;17927;52.350;13.402;2022-12-10T10:39:08;100619.25;;;5.89;56.02
31299;BME280;17927;52.350;13.402;2022-12-10T10:41:38;100612.69;;;5.93;56.25
31299;BME280;17927;52.350;13.402;2022-12-10T10:44:06;100618.78;;;5.95;56.25
31299;BME280;17927;52.350;13.402;2022-12-10T10:46:38;100608.94;;;5.96;56.26
31299;BME280;17927;52.350;13.402;2022-12-10T10:49:33;100610.66;;;5.97;55.90
31299;BME280;17927;52.350;13.402;2022-12-10T10:52:02;100599.03;;;5.97;56.09
31299;BME280;17927;52.350;13.402;2022-12-10T10:56:57;100595.41;;;5.98;56.03
31299;BME280;17927;52.350;13.402;2022-12-10T10:59:30;100599.69;;;6.00;55.95
31299;BME280;17927;52.350;13.402;2022-12-10T11:02:20;100592.50;;;6.01;55.81
31299;BME280;17927;52.350;13.402;2022-12-10T11:04:51;100597.00;;;6.00;55.85
31299;BME280;17927;52.350;13.402;2022-12-10T11:07:33;100595.06;;;6.02;55.90
31299;BME280;17927;52.350;13.402;2022-12-10T11:09:59;100595.19;;;6.01;55.93
31299;BME280;17927;52.350;13.402;2022-12-10T11:14:59;100600.44;;;6.02;55.85
31299;BME280;17927;52.350;13.402;2022-12-10T11:17:25;100586.91;;;6.04;56.17
31299;BME280;17927;52.350;13.402;2022-12-10T11:22:26;100589.38;;;6.07;55.90
31299;BME280;17927;52.350;13.402;2022-12-10T11:24:52;100591.94;;;6.08;56.25
31299;BME280;17927;52.350;13.402;2022-12-10T11:27:33;100580.97;;;6.12;56.03
31299;BME280;17927;52.350;13.402;2022-12-10T11:30:04;100582.69;;;6.13;55.96
31299;BME280;17927;52.350;13.402;2022-12-10T11:32:49;100583.28;;;6.16;55.96
31299;BME280;17927;52.350;13.402;2022-12-10T11:35:45;100581.44;;;6.17;55.79
31299;BME280;17927;52.350;13.402;2022-12-10T11:38:41;100577.78;;;6.18;55.80
31299;BME280;17927;52.350;13.402;2022-12-10T11:41:26;100579.50;;;6.19;55.83
31299;BME280;17927;52.350;13.402;2022-12-10T11:46:59;100579.41;;;6.20;55.66
31299;BME280;17927;52.350;13.402;2022-12-10T11:49:39;100578.66;;;6.18;55.95
31299;BME280;17927;52.350;13.402;2022-12-10T11:55:38;100585.09;;;6.16;55.52
31299;BME280;17927;52.350;13.402;2022-12-10T12:01:11;100591.47;;;6.15;55.57
31299;BME280;17927;52.350;13.402;2022-12-10T12:03:55;100592.44;;;6.14;55.59
31299;BME280;17927;52.350;13.402;2022-12-10T12:06:42;100587.91;;;6.14;55.42
31299;BME280;17927;52.350;13.402;2022-12-10T12:09:25;100589.75;;;6.14;55.54
31299;BME280;17927;52.350;13.402;2022-12-10T12:12:08;100589.63;;;6.15;55.59
31299;BME280;17927;52.350;13.402;2022-12-10T12:14:58;100596.69;;;6.16;55.39
31299;BME280;17927;52.350;13.402;2022-12-10T12:17:36;100605.59;;;6.17;55.36
31299;BME280;17927;52.350;13.402;2022-12-10T12:20:15;100599.25;;;6.18;55.19
31299;BME280;17927;52.350;13.402;2022-12-10T12:22:47;100598.28;;;6.19;55.41
31299;BME280;17927;52.350;13.402;2022-12-10T12:25:22;100598.28;;;6.19;55.48
31299;BME280;17927;52.350;13.402;2022-12-10T12:27:57;100595.59;;;6.19;55.37
31299;BME280;17927;52.350;13.402;2022-12-10T12:30:27;100594.63;;;6.20;55.26
31299;BME280;17927;52.350;13.402;2022-12-10T12:33:01;100600.13;;;6.18;55.46
31299;BME280;17927;52.350;13.402;2022-12-10T12:35:49;100603.66;;;6.19;55.03
31299;BME280;17927;52.350;13.402;2022-12-10T12:38:30;100594.84;;;6.17;55.09
31299;BME280;17927;52.350;13.402;2022-12-10T12:41:10;100593.28;;;6.14;55.40
31299;BME280;17927;52.350;13.402;2022-12-10T12:43:44;100604.88;;;6.15;55.02
31299;BME280;17927;52.350;13.402;2022-12-10T12:46:17;100599.50;;;6.15;54.90
31299;BME280;17927;52.350;13.402;2022-12-10T12:48:53;100607.56;;;6.15;54.99
31299;BME280;17927;52.350;13.402;2022-12-10T12:51:31;100602.44;;;6.12;54.89
31299;BME280;17927;52.350;13.402;2022-12-10T12:53:57;100605.34;;;6.08;54.97
31299;BME280;17927;52.350;13.402;2022-12-10T12:59:35;100605.47;;;6.07;55.18
31299;BME280;17927;52.350;13.402;2022-12-10T13:02:17;100602.88;;;6.05;55.23
31299;BME280;17927;52.350;13.402;2022-12-10T13:04:45;100603.00;;;6.04;54.86
31299;BME280;17927;52.350;13.402;2022-12-10T13:09:51;100607.41;;;6.05;54.90
31299;BME280;17927;52.350;13.402;2022-12-10T13:12:48;100603.13;;;6.02;54.78
31299;BME280;17927;52.350;13.402;2022-12-10T13:15:17;100608.69;;;5.99;54.91
31299;BME280;17927;52.350;13.402;2022-12-10T13:20:49;100617.72;;;5.98;54.78
31299;BME280;17927;52.350;13.402;2022-12-10T13:41:22;100627.41;;;5.88;54.58
31299;BME280;17927;52.350;13.402;2022-12-10T13:49:53;100636.03;;;5.80;54.53
31299;BME280;17927;52.350;13.402;2022-12-10T13:52:53;100637.00;;;5.79;54.79
31299;BME280;17927;52.350;13.402;2022-12-10T13:55:36;100635.53;;;5.75;54.52
31299;BME280;17927;52.350;13.402;2022-12-10T13:58:26;100641.75;;;5.75;54.71
31299;BME280;17927;52.350;13.402;2022-12-10T14:01:00;100644.63;;;5.72;54.92
31299;BME280;17927;52.350;13.402;2022-12-10T14:03:43;100643.66;;;5.73;54.61
31299;BME280;17927;52.350;13.402;2022-12-10T14:06:16;100643.66;;;5.73;54.86
31299;BME280;17927;52.350;13.402;2022-12-10T14:08:53;100641.00;;;5.73;54.94
31299;BME280;17927;52.350;13.402;2022-12-10T14:11:25;100640.16;;;5.73;54.97
31299;BME280;17927;52.350;13.402;2022-12-10T14:13:55;100643.78;;;5.72;54.77
31299;BME280;17927;52.350;13.402;2022-12-10T14:16:23;100648.28;;;5.71;54.67